createdAt,value
2023-04-18T00:01:51.902Z,13.03
2023-04-18T00:06:47.176Z,11.43
2023-04-18T00:11:39.690Z,14.30
2023-04-18T00:16:33.080Z,13.77
2023-04-18T00:21:26.449Z,14.20
2023-04-18T00:26:20.359Z,15.00
2023-04-18T00:31:14.555Z,16.00
2023-04-18T00:36:07.495Z,13.80
2023-04-18T00:40:59.979Z,15.37
2023-04-18T00:45:54.014Z,15.70
2023-04-18T00:50:46.944Z,15.63
2023-04-18T00:55:39.892Z,15.67
2023-04-18T01:00:32.438Z,16.80
2023-04-18T01:05:27.335Z,17.73
2023-04-18T01:10:20.311Z,18.70
2023-04-18T01:15:15.837Z,19.00
2023-04-18T01:20:09.300Z,20.60
2023-04-18T01:25:07.461Z,21.03
2023-04-18T01:29:59.994Z,18.30
2023-04-18T01:34:55.650Z,16.57
2023-04-18T01:39:48.759Z,17.07
2023-04-18T01:44:43.167Z,20.40
2023-04-18T01:49:35.799Z,24.40
2023-04-18T01:54:28.355Z,22.07
2023-04-18T01:59:20.878Z,25.50
2023-04-18T02:04:15.140Z,22.67
2023-04-18T02:09:07.982Z,27.00
2023-04-18T02:14:00.555Z,29.13
2023-04-18T02:18:53.471Z,29.37
2023-04-18T02:23:47.386Z,29.73
2023-04-18T02:28:40.017Z,28.53
2023-04-18T02:33:32.586Z,35.23
2023-04-18T02:38:25.207Z,32.70
2023-04-18T02:43:19.482Z,36.20
2023-04-18T02:48:12.666Z,36.67
2023-04-18T02:53:05.431Z,35.00
2023-04-18T02:58:11.335Z,33.17
2023-04-18T03:03:44.006Z,37.17
2023-04-18T03:08:48.285Z,33.13
2023-04-18T03:13:41.739Z,34.33
2023-04-18T03:18:34.446Z,34.70
2023-04-18T03:23:29.507Z,34.07
2023-04-18T03:28:22.241Z,35.70
2023-04-18T03:33:17.063Z,38.07
2023-04-18T03:38:13.287Z,35.77
2023-04-18T03:43:07.383Z,35.80
2023-04-18T03:48:00.581Z,24.63
2023-04-18T03:52:54.574Z,32.57
2023-04-18T03:57:47.254Z,30.20
2023-04-18T04:02:48.872Z,30.37
2023-04-18T04:07:46.431Z,30.40
2023-04-18T04:12:39.200Z,35.60
2023-04-18T04:17:32.341Z,34.33
2023-04-18T04:22:26.745Z,29.90
2023-04-18T04:27:20.486Z,31.10
2023-04-18T04:32:13.847Z,27.60
2023-04-18T04:37:06.756Z,91.97
2023-04-18T04:42:09.633Z,33.07
2023-04-18T04:47:16.205Z,32.07
2023-04-18T04:52:09.916Z,28.80
2023-04-18T04:57:02.671Z,31.50
2023-04-18T05:01:58.158Z,26.70
2023-04-18T05:06:50.909Z,29.23
2023-04-18T05:11:43.531Z,28.70
2023-04-18T05:16:36.432Z,31.87
2023-04-18T05:21:31.326Z,40.47
2023-04-18T05:26:24.336Z,33.20
2023-04-18T05:31:16.933Z,32.43
2023-04-18T05:36:09.683Z,28.33
2023-04-18T05:41:03.529Z,28.60
2023-04-18T05:45:57.731Z,29.97
2023-04-18T05:50:50.500Z,30.37
2023-04-18T05:55:43.204Z,27.73
2023-04-18T06:00:37.135Z,31.90
2023-04-18T06:05:30.276Z,28.87
2023-04-18T06:10:23.002Z,25.77
2023-04-18T06:15:15.722Z,29.77
2023-04-18T06:20:10.289Z,28.47
2023-04-18T06:25:03.298Z,28.90
2023-04-18T06:29:55.923Z,31.47
2023-04-18T06:34:48.467Z,27.70
2023-04-18T06:39:42.457Z,31.80
2023-04-18T06:44:35.924Z,28.53
2023-04-18T06:49:28.481Z,28.27
2023-04-18T06:54:21.151Z,30.97
2023-04-18T06:59:15.068Z,28.70
2023-04-18T07:04:07.780Z,25.53
2023-04-18T07:09:01.513Z,26.73
2023-04-18T07:13:54.150Z,23.80
2023-04-18T07:18:48.076Z,25.63
2023-04-18T07:23:40.614Z,22.57
2023-04-18T07:28:33.612Z,22.70
2023-04-18T07:33:26.281Z,21.83
2023-04-18T07:38:20.556Z,23.07
2023-04-18T07:43:13.284Z,19.40
2023-04-18T07:48:06.450Z,24.00
2023-04-18T07:52:59.072Z,26.37
2023-04-18T07:57:53.127Z,22.67
2023-04-18T08:02:45.821Z,22.70
2023-04-18T08:07:38.534Z,21.67
2023-04-18T08:12:31.216Z,15.50
2023-04-18T08:17:25.209Z,25.00
2023-04-18T08:22:17.749Z,23.60
2023-04-18T08:27:10.384Z,20.00
2023-04-18T08:32:03.100Z,27.77
2023-04-18T08:36:57.096Z,22.17
2023-04-18T08:41:53.724Z,22.87
2023-04-18T08:46:46.436Z,23.93
2023-04-18T08:51:40.242Z,25.90
2023-04-18T08:56:37.356Z,22.70
2023-04-18T09:01:48.410Z,21.03
2023-04-18T09:06:52.457Z,22.70
2023-04-18T09:11:46.341Z,21.00
2023-04-18T09:16:46.705Z,23.80
2023-04-18T09:21:40.384Z,18.97
2023-04-18T09:26:36.954Z,19.10
2023-04-18T09:31:31.076Z,20.83
2023-04-18T09:36:24.671Z,20.47
2023-04-18T09:41:20.762Z,20.90
2023-04-18T09:46:14.439Z,24.40
2023-04-18T09:51:09.142Z,23.37
2023-04-18T09:56:02.378Z,22.33
2023-04-18T10:00:55.148Z,20.83
2023-04-18T10:05:48.329Z,19.20
2023-04-18T10:10:42.527Z,20.47
2023-04-18T10:15:35.663Z,22.07
2023-04-18T10:20:32.610Z,18.63
2023-04-18T10:25:50.707Z,20.37
2023-04-18T10:30:52.103Z,20.03
2023-04-18T10:35:56.770Z,17.60
2023-04-18T10:40:50.783Z,18.23
2023-04-18T10:45:43.377Z,19.63
2023-04-18T10:50:35.952Z,18.03
2023-04-18T10:55:29.908Z,22.43
2023-04-18T11:00:24.218Z,17.97
2023-04-18T11:05:20.000Z,18.33
2023-04-18T11:10:13.518Z,19.70
2023-04-18T11:15:10.790Z,23.63
2023-04-18T11:20:09.043Z,19.00
2023-04-18T11:25:02.114Z,16.97
2023-04-18T11:29:54.973Z,19.97
2023-04-18T11:34:47.590Z,17.67
2023-04-18T11:39:44.077Z,18.20
2023-04-18T11:44:39.693Z,18.37
2023-04-18T11:49:33.100Z,19.77
2023-04-18T11:54:38.954Z,17.50
2023-04-18T11:59:32.954Z,17.43
2023-04-18T12:04:25.691Z,20.83
2023-04-18T12:09:19.225Z,18.33
2023-04-18T12:14:20.451Z,18.43
2023-04-18T12:19:15.226Z,16.67
2023-04-18T12:24:15.380Z,15.10
2023-04-18T12:29:08.063Z,18.20
2023-04-18T12:34:00.599Z,16.57
2023-04-18T12:38:54.538Z,15.80
2023-04-18T12:43:47.120Z,16.10
2023-04-18T12:48:39.775Z,15.97
2023-04-18T12:53:32.280Z,16.47
2023-04-18T12:58:26.211Z,15.57
2023-04-18T13:03:18.958Z,14.63
2023-04-18T13:08:17.054Z,17.23
2023-04-18T13:13:10.710Z,16.40
2023-04-18T13:18:06.643Z,17.03
2023-04-18T13:22:59.522Z,17.77
2023-04-18T13:27:52.132Z,16.30
2023-04-18T13:32:44.762Z,16.63
2023-04-18T13:37:38.843Z,16.57
2023-04-18T13:42:31.442Z,12.67
2023-04-18T13:47:23.982Z,12.33
2023-04-18T13:52:17.458Z,12.17
2023-04-18T13:57:12.569Z,15.20
2023-04-18T14:02:05.580Z,13.03
2023-04-18T14:06:58.621Z,14.20
2023-04-18T14:11:52.054Z,14.13
2023-04-18T14:16:46.223Z,10.50
2023-04-18T14:21:39.224Z,12.10
2023-04-18T14:26:32.070Z,10.97
2023-04-18T14:31:28.345Z,14.17
2023-04-18T14:36:28.212Z,10.63
2023-04-18T14:41:22.073Z,9.77
2023-04-18T14:46:16.862Z,10.60
2023-04-18T14:51:10.886Z,8.37
2023-04-18T14:56:08.953Z,7.37
2023-04-18T15:01:02.647Z,7.07
2023-04-18T15:06:02.697Z,7.30
2023-04-18T15:11:01.040Z,7.20
2023-04-18T15:16:29.866Z,10.17
2023-04-18T15:21:32.428Z,7.40
2023-04-18T15:32:00.415Z,7.80
2023-04-18T15:37:17.464Z,8.03
2023-04-18T15:42:20.019Z,7.33
2023-04-18T15:47:18.615Z,5.60
2023-04-18T15:52:20.956Z,6.33
2023-04-18T15:57:26.007Z,6.40
2023-04-18T16:02:23.554Z,7.57
2023-04-18T16:07:40.915Z,7.70
2023-04-18T16:12:45.220Z,8.37
2023-04-18T16:17:43.215Z,5.37
2023-04-18T16:22:42.603Z,5.60
2023-04-18T16:28:05.121Z,4.97
2023-04-18T16:33:02.635Z,7.13
2023-04-18T16:38:15.154Z,5.53
2023-04-18T16:43:33.872Z,5.03
2023-04-18T16:48:59.755Z,5.00
2023-04-18T16:53:59.671Z,5.30
2023-04-18T16:58:53.712Z,6.60
2023-04-18T17:04:02.512Z,6.47
2023-04-18T17:09:12.544Z,5.83
2023-04-18T17:14:19.774Z,5.50
2023-04-18T17:19:33.094Z,5.87
2023-04-18T17:24:27.459Z,5.80
2023-04-18T17:29:21.001Z,5.33
2023-04-18T17:34:13.709Z,6.30
2023-04-18T17:39:07.625Z,6.43
2023-04-18T17:44:40.104Z,5.27
2023-04-18T17:49:34.877Z,6.73
2023-04-18T17:54:27.522Z,7.97
2023-04-18T17:59:20.171Z,6.40
2023-04-18T18:04:12.971Z,6.70
2023-04-18T18:09:07.936Z,4.43
2023-04-18T18:14:06.675Z,6.03
2023-04-18T18:19:12.290Z,5.90
2023-04-18T18:24:19.163Z,5.97
2023-04-18T18:29:15.859Z,5.43
2023-04-18T18:34:25.175Z,42.30
2023-04-18T18:39:32.312Z,8.33
2023-04-18T18:44:25.299Z,7.27
2023-04-18T18:49:18.150Z,10.03
2023-04-18T18:54:11.249Z,11.30
2023-04-18T18:59:05.345Z,10.70
2023-04-18T19:03:58.194Z,9.23
2023-04-18T19:08:51.261Z,9.20
2023-04-18T19:13:44.110Z,9.67
2023-04-18T19:18:38.252Z,9.73
2023-04-18T19:23:31.160Z,11.80
2023-04-18T19:28:24.024Z,9.43
2023-04-18T19:33:17.223Z,9.80
2023-04-18T19:38:11.690Z,9.50
2023-04-18T19:43:04.524Z,10.77
2023-04-18T19:47:57.423Z,11.97
2023-04-18T19:52:50.165Z,10.60
2023-04-18T19:57:44.323Z,11.87
2023-04-18T20:02:37.387Z,36.20
2023-04-18T20:07:30.217Z,10.57
2023-04-18T20:12:23.467Z,9.50
2023-04-18T20:17:18.461Z,12.13
2023-04-18T20:22:11.302Z,13.77
2023-04-18T20:27:03.980Z,13.70
2023-04-18T20:31:57.873Z,14.57
2023-04-18T20:36:52.549Z,17.80
2023-04-18T20:41:47.310Z,13.77
2023-04-18T20:46:39.974Z,15.00
2023-04-18T20:51:34.320Z,16.73
2023-04-18T20:56:28.468Z,13.63
2023-04-18T21:01:21.555Z,13.60
2023-04-18T21:06:14.125Z,12.47
2023-04-18T21:11:06.891Z,13.57
2023-04-18T21:16:03.147Z,16.37
2023-04-18T21:20:55.816Z,17.33
2023-04-18T21:25:48.408Z,15.17
2023-04-18T21:30:41.043Z,14.47
2023-04-18T21:35:34.977Z,14.00
2023-04-18T21:40:30.542Z,17.60
2023-04-18T21:45:23.369Z,13.70
2023-04-18T21:50:16.021Z,15.50
2023-04-18T21:55:10.390Z,14.10
2023-04-18T22:00:03.078Z,13.77
2023-04-18T22:05:01.496Z,13.20
2023-04-18T22:09:54.026Z,15.80
2023-04-18T22:14:48.986Z,16.13
2023-04-18T22:19:41.558Z,15.00
2023-04-18T22:24:34.118Z,14.20
2023-04-18T22:29:26.827Z,18.03
2023-04-18T22:34:20.791Z,14.67
2023-04-18T22:39:13.405Z,16.13
2023-04-18T22:44:06.129Z,16.20
2023-04-18T22:48:58.723Z,17.50
2023-04-18T22:53:52.594Z,16.30
2023-04-18T22:58:45.257Z,15.80
2023-04-18T23:03:38.150Z,16.63
2023-04-18T23:08:31.510Z,16.27
2023-04-18T23:13:25.447Z,17.20
2023-04-18T23:18:18.016Z,19.00
2023-04-18T23:23:10.753Z,14.80
2023-04-18T23:28:03.356Z,16.37
2023-04-18T23:32:57.352Z,16.30
2023-04-18T23:37:50.162Z,16.03
2023-04-18T23:42:43.068Z,17.07
2023-04-18T23:47:35.653Z,16.10
2023-04-18T23:52:29.711Z,18.00
2023-04-18T23:57:22.252Z,17.80
